This is the latest recevied weather packets stored in our database for station/object DF7ER-12. If no packets are shown the sender has not sent any weather packets the latest 10 day(s).
| Time | Temp. | Humidity | Pressure | Rain* | Wind** | Luminosity | Snow |
|---|---|---|---|---|---|---|---|
| 1777544199 | 17.78° C | 45% | 1021.8 hPa | - | - | - | - |
| 1777543899 | 17.22° C | 44% | 1021.8 hPa | - | - | - | - |
| 1777543600 | 18.89° C | 44% | 1021.8 hPa | - | - | - | - |
| 1777543299 | 18.33° C | 44% | 1021.9 hPa | - | - | - | - |
| 1777542999 | 18.33° C | 44% | 1021.9 hPa | - | - | - | - |
| 1777542699 | 17.78° C | 45% | 1021.8 hPa | - | - | - | - |
| 1777542399 | 17.78° C | 44% | 1021.9 hPa | - | - | - | - |
| 1777542100 | 18.33° C | 45% | 1021.9 hPa | - | - | - | - |
| 1777541799 | 17.22° C | 44% | 1021.9 hPa | - | - | - | - |
| 1777541500 | 17.78° C | 45% | 1022 hPa | - | - | - | - |
| 1777541200 | 17.78° C | 44% | 1022 hPa | - | - | - | - |
| 1777540900 | 18.89° C | 45% | 1022.1 hPa | - | - | - | - |
| 1777540599 | 17.22° C | 44% | 1022 hPa | - | - | - | - |
| 1777540300 | 18.33° C | 44% | 1022.1 hPa | - | - | - | - |
| 1777539999 | 18.33° C | 44% | 1022.1 hPa | - | - | - | - |
| 1777539699 | 17.22° C | 44% | 1022.2 hPa | - | - | - | - |
| 1777539399 | 17.22° C | 45% | 1022.2 hPa | - | - | - | - |
| 1777539099 | 16.67° C | 44% | 1022.1 hPa | - | - | - | - |
| 1777538800 | 17.22° C | 44% | 1022.3 hPa | - | - | - | - |
| 1777538499 | 17.22° C | 44% | 1022.3 hPa | - | - | - | - |
| 1777538200 | 16.67° C | 43% | 1022.2 hPa | - | - | - | - |
| 1777537900 | 16.67° C | 43% | 1022.3 hPa | - | - | - | - |
| 1777537600 | 17.78° C | 43% | 1022.5 hPa | - | - | - | - |
| 1777537300 | 16.67° C | 45% | 1022.4 hPa | - | - | - | - |
| 1777537000 | 16.67° C | 44% | 1022.4 hPa | - | - | - | - |
* Rain since midnight (hover to see other rain measurements)
** Current wind speed in m/s (hover to see current wind gust speed)